Nearby METAR Reports

 

NZAA - Auckland Intl Ar, New Zealand
Distance from station: SSE 87km
Updated: 23/01/2019 03:00
Partly cloudy
Partly cloudy
 Wind from SW
Wind: SW 22 km/h
Temperature: 19°C
Dew Point: 15°C
Humidity: 78%
Barometer: 1014 hPa
Clouds: Partly cloudy
Visibility: 10 km
Cloud details: Partly cloudy 579 m
2019/01/22 14:00 NZAA 221400Z AUTO 22012KT 9999 SCT019/// 19/15 Q1014 NOSIG
NZWN - Wellington Intl, New Zealand
Distance from station: S 561km
Updated: 23/01/2019 03:00
Clear
Clear
 Wind from NNE
Wind: NNE 30 km/h
Temperature: 18°C
Dew Point: 14°C
Humidity: 78%
Barometer: 1008 hPa
Clouds: Clear
Visibility: 10 km
2019/01/22 14:00 NZWN 221400Z AUTO 02016KT 9999 NCD 18/14 Q1008 NOSIG
 
NZCH - Christchurch Int, New Zealand
Distance from station: S 817km
Updated: 23/01/2019 03:00
Clear
Clear
 Wind from NNW
Wind: NNW 20 km/h
Temperature: 23°C
Dew Point: 11°C
Humidity: 47%
Barometer: 998 hPa
Clouds: Clear
Visibility: 10 km
2019/01/22 14:00 NZCH 221400Z AUTO 33011KT 300V360 9999 NCD 23/11 Q0998 NOSIG
YSNF - Norfolk Island A, Australia
Distance from station: NW 1015km
Updated: 23/01/2019 03:00
Overcast
Overcast
 Wind from ENE
Wind: ENE 7 km/h
Temperature: 21°C
Dew Point: 17°C
Humidity: 78%
Barometer: 1017 hPa
Clouds: Overcast
Visibility: 10 km
Cloud details: Overcast 1158 m
2019/01/22 14:00 YSNF 221400Z AUTO 07004KT 9999 // OVC038 21/17 Q1017